Time;durP1;ratioP1;P1;durP2;ratioP2;P2;SDS_P1;SDS_P2;PMS_P1;PMS_P2;Temp;Humidity;BMP_temperature;BMP_pressure;BME280_temperature;BME280_humidity;BME280_pressure;Samples;Min_cycle;Max_cycle;Signal;HPM_P1;HPM_P2
2021/03/18 00:46:04;;;;;;;9.70;2.65;;;7.00;95.40;;;;;;5013143;28;20633;-77
2021/03/18 00:48:32;;;;;;;8.77;2.38;;;7.00;95.30;;;;;;5016613;28;20046;-76
2021/03/18 00:51:05;;;;;;;9.40;2.35;;;7.00;95.40;;;;;;5016489;28;20095;-76
2021/03/18 00:53:34;;;;;;;9.18;2.50;;;7.00;96.10;;;;;;5016399;28;20104;-77
2021/03/18 00:56:01;;;;;;;8.85;2.53;;;7.00;96.40;;;;;;5016307;28;20041;-77
2021/03/18 00:58:27;;;;;;;10.35;2.97;;;7.00;96.10;;;;;;5016457;28;20046;-77
2021/03/18 01:00:55;;;;;;;11.43;3.10;;;7.00;96.50;;;;;;5016164;28;20129;-77
2021/03/18 01:03:22;;;;;;;9.38;3.10;;;7.00;96.60;;;;;;5015997;28;20120;-77
2021/03/18 01:05:59;;;;;;;12.00;2.40;;;6.90;96.60;;;;;;5016413;28;20057;-77
2021/03/18 01:08:29;;;;;;;9.93;2.67;;;6.90;95.80;;;;;;5016555;28;20037;-77
2021/03/18 01:11:32;;;;;;;6.43;2.15;;;6.80;97.80;;;;;;5015711;28;20096;-77
2021/03/18 01:14:02;;;;;;;10.90;2.88;;;6.60;98.30;;;;;;5015120;28;20184;-77
2021/03/18 01:16:32;;;;;;;14.90;3.45;;;6.40;99.90;;;;;;5016089;28;20065;-77
2021/03/18 01:19:01;;;;;;;13.03;3.53;;;6.40;99.90;;;;;;5016157;28;20049;-77
2021/03/18 01:21:33;;;;;;;14.10;2.95;;;6.20;99.90;;;;;;5015973;28;20285;-77
2021/03/18 01:24:00;;;;;;;8.57;2.95;;;6.20;99.90;;;;;;5015625;28;20042;-77
2021/03/18 01:26:26;;;;;;;11.35;3.30;;;6.10;99.90;;;;;;5015888;28;20489;-77
2021/03/18 01:28:52;;;;;;;13.77;2.80;;;6.00;99.90;;;;;;5015283;28;20041;-77
2021/03/18 01:31:18;;;;;;;10.43;2.92;;;6.00;99.90;;;;;;5015739;28;20049;-77
2021/03/18 01:33:44;;;;;;;12.40;3.17;;;5.90;99.90;;;;;;5015755;28;20120;-77
2021/03/18 01:36:14;;;;;;;13.13;3.85;;;5.80;99.90;;;;;;5015728;28;20080;-77
2021/03/18 01:42:02;;;;;;;11.07;2.80;;;5.80;99.90;;;;;;5015191;28;20401;-77
2021/03/18 01:44:28;;;;;;;11.02;2.60;;;5.80;99.90;;;;;;5015101;28;20029;-77
2021/03/18 01:46:54;;;;;;;11.80;3.50;;;5.80;99.90;;;;;;5014840;28;20061;-77
2021/03/18 01:49:20;;;;;;;11.48;2.67;;;5.70;99.90;;;;;;5035397;28;20432;-77
2021/03/18 01:51:46;;;;;;;14.18;3.30;;;5.70;99.90;;;;;;5035036;28;20053;-77
2021/03/18 01:54:13;;;;;;;10.48;2.70;;;5.60;99.90;;;;;;5035125;28;20033;-76
2021/03/18 01:56:39;;;;;;;7.93;2.88;;;5.70;99.90;;;;;;5035324;28;20037;-77
2021/03/18 01:59:05;;;;;;;13.23;2.97;;;5.70;99.90;;;;;;5035445;28;20041;-77
2021/03/18 02:01:31;;;;;;;7.85;2.50;;;5.70;99.90;;;;;;5034970;28;20041;-77
2021/03/18 02:03:57;;;;;;;10.82;3.05;;;5.70;99.90;;;;;;5034695;28;20091;-77
2021/03/18 02:06:23;;;;;;;10.90;3.20;;;5.60;99.90;;;;;;5034932;28;20036;-77
2021/03/18 02:08:48;;;;;;;13.80;3.55;;;5.40;99.90;;;;;;5034621;28;20057;-77
2021/03/18 02:11:14;;;;;;;11.57;3.08;;;5.40;99.90;;;;;;5034495;28;20134;-76
2021/03/18 02:13:41;;;;;;;7.97;2.17;;;5.40;99.90;;;;;;5034608;28;20030;-77
2021/03/18 02:16:11;;;;;;;11.90;2.85;;;5.40;99.90;;;;;;5034489;28;20504;-77
2021/03/18 02:19:33;;;;;;;11.65;2.60;;;5.30;99.90;;;;;;5034157;28;20038;-77
2021/03/18 02:22:34;;;;;;;9.15;2.75;;;5.20;99.90;;;;;;5012249;28;20537;-77
2021/03/18 02:25:19;;;;;;;9.43;2.90;;;5.20;99.90;;;;;;4953529;29;20039;-77
2021/03/18 02:28:22;;;;;;;11.93;3.05;;;5.20;99.90;;;;;;5024913;28;20029;-76
2021/03/18 02:31:05;;;;;;;14.07;3.50;;;5.10;99.90;;;;;;5033511;28;20037;-77
2021/03/18 02:33:37;;;;;;;10.40;3.22;;;5.10;99.90;;;;;;5033385;28;20041;-77
2021/03/18 02:36:08;;;;;;;12.50;2.80;;;5.10;99.90;;;;;;5034211;28;20488;-77
2021/03/18 02:38:42;;;;;;;10.88;2.72;;;5.00;99.90;;;;;;5033910;28;20527;-77
2021/03/18 02:41:23;;;;;;;12.90;3.10;;;4.90;99.90;;;;;;5034027;28;20045;-77
2021/03/18 02:44:22;;;;;;;13.32;3.40;;;4.90;99.90;;;;;;5016291;28;20037;-76
2021/03/18 02:46:53;;;;;;;13.75;3.35;;;4.80;99.90;;;;;;5032547;28;20049;-76
2021/03/18 02:49:19;;;;;;;;;;;4.90;99.90;;;;;;5017329;28;20494;-76
2021/03/18 02:51:45;;;;;;;10.02;3.28;;;4.70;99.90;;;;;;5034562;28;20039;-76
2021/03/18 02:54:17;;;;;;;14.40;2.95;;;4.60;99.90;;;;;;5038239;28;20064;-76
2021/03/18 02:56:46;;;;;;;14.13;3.47;;;4.50;99.90;;;;;;5038172;28;20578;-76
2021/03/18 02:59:18;;;;;;;13.35;3.63;;;4.60;99.90;;;;;;5038410;28;20041;-76
2021/03/18 03:01:46;;;;;;;13.77;3.10;;;4.60;99.90;;;;;;5038127;28;20403;-76
2021/03/18 03:04:14;;;;;;;16.63;3.40;;;4.50;99.90;;;;;;5038571;28;20037;-76
2021/03/18 03:06:41;;;;;;;13.70;3.55;;;4.50;99.90;;;;;;5037959;28;20073;-76
2021/03/18 03:09:09;;;;;;;13.93;3.03;;;4.50;99.90;;;;;;5020896;28;20052;-76
2021/03/18 03:11:38;;;;;;;12.68;2.90;;;4.40;99.90;;;;;;5038096;28;20050;-76
2021/03/18 03:14:06;;;;;;;8.63;2.67;;;4.30;99.90;;;;;;5038047;28;20037;-76
2021/03/18 03:16:33;;;;;;;11.77;3.03;;;4.50;99.90;;;;;;5037812;28;20077;-76
2021/03/18 03:19:00;;;;;;;13.68;2.97;;;4.50;99.90;;;;;;5037939;28;20061;-76
2021/03/18 03:21:27;;;;;;;11.60;2.90;;;4.50;99.90;;;;;;5038031;28;20068;-76
2021/03/18 03:23:54;;;;;;;9.93;2.53;;;4.40;99.90;;;;;;5037643;28;20077;-76
2021/03/18 03:26:23;;;;;;;10.32;2.92;;;4.40;99.90;;;;;;5037665;28;20042;-76
2021/03/18 03:28:51;;;;;;;9.23;2.70;;;4.40;99.90;;;;;;5037725;28;20041;-76
2021/03/18 03:31:17;;;;;;;9.57;2.75;;;4.50;99.90;;;;;;5037806;28;20067;-76
2021/03/18 03:33:44;;;;;;;11.93;3.28;;;4.40;99.90;;;;;;5037804;28;20080;-76
2021/03/18 03:36:09;;;;;;;11.05;3.10;;;4.50;99.90;;;;;;5037693;28;20045;-76
2021/03/18 03:38:36;;;;;;;14.48;3.58;;;4.40;99.90;;;;;;5038055;28;20037;-76
2021/03/18 03:41:03;;;;;;;15.27;3.13;;;4.30;99.90;;;;;;5037399;28;20037;-77
2021/03/18 03:43:28;;;;;;;12.07;3.55;;;4.50;99.90;;;;;;5037429;28;20052;-76
2021/03/18 03:45:54;;;;;;;15.15;3.47;;;4.40;99.90;;;;;;5037572;28;20033;-76
2021/03/18 03:48:22;;;;;;;11.52;2.90;;;4.50;99.90;;;;;;5038065;28;20073;-76
2021/03/18 03:50:48;;;;;;;12.30;3.58;;;4.50;99.90;;;;;;5037095;28;20053;-76
2021/03/18 03:53:47;;;;;;;8.68;3.47;;;4.50;99.90;;;;;;5037140;28;20072;-76
2021/03/18 03:56:24;;;;;;;14.02;3.33;;;4.60;99.90;;;;;;5037172;28;20037;-76
2021/03/18 03:59:05;;;;;;;10.70;3.30;;;4.80;99.90;;;;;;5037094;28;20037;-76
2021/03/18 04:01:43;;;;;;;10.25;4.18;;;4.70;99.90;;;;;;5037329;28;20041;-76
2021/03/18 04:04:17;;;;;;;12.27;3.83;;;4.70;99.90;;;;;;5037164;28;20101;-76
2021/03/18 04:06:44;;;;;;;12.80;3.70;;;4.70;99.90;;;;;;5037167;28;20041;-76
2021/03/18 04:09:16;;;;;;;10.95;3.10;;;4.60;99.90;;;;;;5037232;28;20033;-76
2021/03/18 04:11:43;;;;;;;14.90;4.60;;;4.50;99.90;;;;;;5037329;28;20050;-76
2021/03/18 04:14:12;;;;;;;10.27;3.28;;;4.50;99.90;;;;;;5036554;28;20385;-76
2021/03/18 04:16:41;;;;;;;8.93;3.70;;;4.50;99.90;;;;;;5036676;28;20045;-76
2021/03/18 04:19:09;;;;;;;14.82;3.85;;;4.50;99.90;;;;;;5037275;28;20084;-76
2021/03/18 04:21:39;;;;;;;8.43;3.10;;;4.50;99.90;;;;;;5036602;28;20539;-76
2021/03/18 04:24:07;;;;;;;10.75;3.30;;;4.40;99.90;;;;;;5037132;28;20043;-77
2021/03/18 04:26:35;;;;;;;5.65;2.38;;;4.40;99.90;;;;;;5036542;28;20071;-77
2021/03/18 04:29:03;;;;;;;6.63;2.70;;;4.60;99.90;;;;;;5036296;28;20037;-77
2021/03/18 04:31:31;;;;;;;8.05;2.88;;;4.60;99.90;;;;;;5036660;28;20156;-76
2021/03/18 04:33:58;;;;;;;7.32;3.13;;;4.70;99.90;;;;;;5036655;28;20048;-77
2021/03/18 04:36:25;;;;;;;9.73;3.50;;;4.70;99.90;;;;;;5018896;28;20388;-76
2021/03/18 04:38:51;;;;;;;9.20;3.08;;;4.70;99.90;;;;;;5036651;28;20488;-77
2021/03/18 04:41:17;;;;;;;7.30;3.15;;;4.70;99.90;;;;;;5036542;28;20503;-77
2021/03/18 04:43:44;;;;;;;12.73;3.63;;;4.80;99.90;;;;;;5036069;28;20052;-76
2021/03/18 04:46:10;;;;;;;10.95;3.65;;;4.70;99.90;;;;;;5036069;28;20037;-76
2021/03/18 04:48:38;;;;;;;11.40;2.67;;;4.60;99.90;;;;;;5036013;28;20056;-76
2021/03/18 04:51:09;;;;;;;10.18;2.83;;;4.70;99.90;;;;;;5036285;28;20094;-76
2021/03/18 04:53:36;;;;;;;6.55;2.60;;;4.60;99.90;;;;;;5035986;28;20037;-76
2021/03/18 04:56:07;;;;;;;9.48;2.97;;;4.50;99.90;;;;;;5036270;28;20033;-76
2021/03/18 04:58:36;;;;;;;10.10;2.85;;;4.50;99.90;;;;;;5036273;28;20041;-76
2021/03/18 05:01:03;;;;;;;8.40;3.65;;;4.50;99.90;;;;;;5035854;28;20037;-76
2021/03/18 05:03:29;;;;;;;8.32;3.58;;;4.40;99.90;;;;;;5035834;28;20044;-76
2021/03/18 05:05:59;;;;;;;14.05;3.53;;;4.30;99.90;;;;;;5036021;28;20045;-76
2021/03/18 05:08:27;;;;;;;9.68;2.63;;;4.10;99.90;;;;;;5036237;28;20037;-76
2021/03/18 05:10:53;;;;;;;7.97;2.95;;;4.00;99.90;;;;;;5035882;28;20103;-76
2021/03/18 05:13:20;;;;;;;8.77;3.50;;;4.00;99.90;;;;;;5036325;28;20037;-77
2021/03/18 05:15:47;;;;;;;8.82;3.10;;;4.10;99.90;;;;;;5034983;28;20034;-77
2021/03/18 05:18:17;;;;;;;8.73;3.22;;;4.20;99.90;;;;;;5035671;28;20049;-76
2021/03/18 05:20:45;;;;;;;7.15;3.60;;;4.30;99.90;;;;;;5035700;28;20140;-76
2021/03/18 05:23:14;;;;;;;8.25;3.60;;;4.50;99.90;;;;;;5035749;28;20077;-77
2021/03/18 05:25:40;;;;;;;7.35;3.05;;;4.50;99.90;;;;;;5034928;28;20045;-77
2021/03/18 05:28:06;;;;;;;8.23;3.10;;;4.50;99.90;;;;;;5034589;28;20403;-77
2021/03/18 05:30:33;;;;;;;6.32;2.92;;;4.40;99.90;;;;;;5032802;28;20042;-77
2021/03/18 05:33:01;;;;;;;6.50;3.20;;;4.40;99.90;;;;;;5033626;28;20130;-76
2021/03/18 05:35:27;;;;;;;7.82;3.38;;;4.40;99.90;;;;;;5034221;28;20033;-76
2021/03/18 05:37:53;;;;;;;8.52;3.58;;;4.40;99.90;;;;;;5035795;28;20202;-74
2021/03/18 05:40:20;;;;;;;5.50;3.45;;;4.30;99.90;;;;;;5035426;28;20523;-74
2021/03/18 05:42:47;;;;;;;7.93;2.65;;;4.40;99.90;;;;;;5034921;28;20505;-74
2021/03/18 05:45:15;;;;;;;4.70;3.03;;;4.40;99.90;;;;;;5035019;28;20044;-74
2021/03/18 05:47:42;;;;;;;5.03;2.60;;;4.30;99.90;;;;;;5035601;28;20059;-74
2021/03/18 05:50:12;;;;;;;4.80;2.88;;;4.40;99.90;;;;;;5035401;28;20041;-74
2021/03/18 05:52:39;;;;;;;6.93;2.57;;;4.30;99.90;;;;;;5035216;28;20049;-74
2021/03/18 05:55:07;;;;;;;6.47;2.75;;;4.30;99.90;;;;;;5035429;28;20053;-76
2021/03/18 05:57:34;;;;;;;5.47;2.70;;;4.20;99.90;;;;;;5035333;28;20040;-76
2021/03/18 06:00:05;;;;;;;6.07;2.72;;;4.10;99.90;;;;;;5034618;28;20049;-75
2021/03/18 06:02:33;;;;;;;6.63;2.78;;;4.10;99.90;;;;;;5033126;28;20033;-75
2021/03/18 06:05:01;;;;;;;5.65;2.70;;;4.10;99.90;;;;;;5033045;28;20033;-76
2021/03/18 06:07:27;;;;;;;5.60;3.10;;;4.10;99.90;;;;;;5034014;28;20041;-76
2021/03/18 06:09:55;;;;;;;7.80;3.00;;;4.10;99.90;;;;;;5034771;28;20069;-75
2021/03/18 06:12:22;;;;;;;5.28;2.80;;;4.00;99.90;;;;;;5033939;28;20049;-75
2021/03/18 06:14:48;;;;;;;5.63;2.78;;;3.90;99.90;;;;;;5033657;28;20041;-75
2021/03/18 06:17:15;;;;;;;4.90;2.40;;;4.00;99.90;;;;;;5035035;28;20037;-74
2021/03/18 06:19:41;;;;;;;4.28;2.20;;;3.90;99.90;;;;;;5034681;28;20136;-76
2021/03/18 06:22:07;;;;;;;6.97;2.67;;;4.00;99.90;;;;;;5034153;28;20045;-76
2021/03/18 06:24:46;;;;;;;6.15;2.60;;;4.10;99.90;;;;;;5026286;28;20096;-77
2021/03/18 06:27:21;;;;;;;5.60;2.70;;;4.10;99.90;;;;;;5031765;28;20041;-77
2021/03/18 06:29:46;;;;;;;5.53;2.83;;;4.20;99.90;;;;;;5033711;28;20041;-76
2021/03/18 06:32:12;;;;;;;4.40;2.58;;;4.20;99.90;;;;;;5032866;28;20064;-76
2021/03/18 06:34:41;;;;;;;5.32;2.50;;;4.30;99.90;;;;;;5024648;28;20048;-74
2021/03/18 06:37:47;;;;;;;5.78;2.80;;;4.50;99.90;;;;;;5030135;28;20124;-77
2021/03/18 06:40:17;;;;;;;5.97;2.80;;;4.60;99.90;;;;;;5031178;28;20033;-76
2021/03/18 06:42:55;;;;;;;4.15;2.20;;;4.60;99.90;;;;;;5031943;28;20045;-76
2021/03/18 06:45:21;;;;;;;4.15;2.63;;;4.80;99.90;;;;;;5032304;28;20497;-75
2021/03/18 06:47:51;;;;;;;5.15;2.60;;;4.80;99.90;;;;;;5033423;28;20140;-76
2021/03/18 06:50:25;;;;;;;6.18;2.83;;;5.00;99.90;;;;;;5032620;28;20045;-75
2021/03/18 06:52:51;;;;;;;4.35;2.47;;;5.20;99.90;;;;;;5032220;28;20125;-75
2021/03/18 06:55:32;;;;;;;4.90;2.70;;;5.20;99.90;;;;;;5032090;28;20045;-75
2021/03/18 06:58:21;;;;;;;5.97;3.08;;;5.20;99.90;;;;;;5030687;28;20095;-75
2021/03/18 07:00:52;;;;;;;3.85;2.22;;;5.30;99.90;;;;;;5031725;28;20551;-76
2021/03/18 07:03:26;;;;;;;;;;;5.40;99.90;;;;;;5032172;28;20065;-75
2021/03/18 07:05:53;;;;;;;4.53;3.05;;;5.40;99.90;;;;;;5014969;28;19909;-75
2021/03/18 07:08:24;;;;;;;6.10;3.25;;;5.40;99.90;;;;;;5033779;28;20037;-75
2021/03/18 07:10:50;;;;;;;5.70;2.53;;;5.30;99.90;;;;;;5033445;28;20080;-75
2021/03/18 07:13:22;;;;;;;6.47;3.63;;;5.30;99.90;;;;;;5033215;28;20138;-75
2021/03/18 07:15:50;;;;;;;6.25;2.85;;;5.30;99.90;;;;;;5032503;28;20091;-75
2021/03/18 07:18:16;;;;;;;4.70;2.63;;;5.20;99.90;;;;;;5033021;28;20042;-75
2021/03/18 07:21:00;;;;;;;5.13;2.75;;;5.10;99.90;;;;;;5033163;28;20058;-78
2021/03/18 07:23:33;;;;;;;6.07;2.85;;;5.20;99.90;;;;;;5031793;28;20038;-77
2021/03/18 07:25:59;;;;;;;6.30;2.80;;;5.20;99.90;;;;;;5031585;28;20052;-78
2021/03/18 07:28:25;;;;;;;7.45;3.25;;;5.30;99.90;;;;;;5031605;28;20042;-77
2021/03/18 07:30:52;;;;;;;4.20;2.35;;;5.40;99.90;;;;;;5032635;28;20408;-78
2021/03/18 07:33:19;;;;;;;4.18;2.70;;;5.50;99.90;;;;;;5033363;28;20120;-78
2021/03/18 07:35:46;;;;;;;10.45;6.07;;;5.50;99.90;;;;;;5032221;28;20041;-78
2021/03/18 07:38:12;;;;;;;4.47;3.58;;;5.70;99.90;;;;;;5033984;28;20041;-77
2021/03/18 07:40:38;;;;;;;12.88;10.05;;;5.80;99.90;;;;;;5036985;28;20037;-77
2021/03/18 07:43:04;;;;;;;5.03;3.05;;;5.90;96.10;;;;;;5035116;28;20072;-78
2021/03/18 07:45:30;;;;;;;3.83;2.78;;;6.00;95.30;;;;;;5035466;28;20381;-78
2021/03/18 07:47:57;;;;;;;3.97;3.53;;;6.10;94.40;;;;;;5036317;28;20061;-78
2021/03/18 07:50:37;;;;;;;3.40;2.53;;;6.30;92.60;;;;;;5036104;28;20100;-78
2021/03/18 07:53:04;;;;;;;3.25;2.95;;;6.50;91.30;;;;;;5037226;28;20048;-78
2021/03/18 07:55:33;;;;;;;4.10;2.67;;;6.60;91.50;;;;;;5036046;28;20116;-77
2021/03/18 07:57:58;;;;;;;4.88;4.03;;;6.80;89.60;;;;;;5036540;28;20504;-78
2021/03/18 08:00:25;;;;;;;3.35;2.53;;;6.70;83.90;;;;;;5036683;28;20041;-77
2021/03/18 08:03:14;;;;;;;8.60;6.32;;;6.90;87.50;;;;;;5036512;28;20074;-78
2021/03/18 08:05:41;;;;;;;5.63;5.05;;;7.00;83.20;;;;;;5018072;28;20435;-77
2021/03/18 08:08:29;;;;;;;8.63;7.90;;;6.70;79.50;;;;;;5036248;28;20047;-78
2021/03/18 08:11:20;;;;;;;3.75;2.80;;;6.70;78.90;;;;;;5035743;28;20045;-78
2021/03/18 08:13:47;;;;;;;3.67;2.67;;;6.90;80.00;;;;;;5018451;28;20431;-77
2021/03/18 08:16:28;;;;;;;3.80;2.65;;;6.90;79.80;;;;;;5036041;28;20041;-77
2021/03/18 08:18:55;;;;;;;5.53;3.05;;;6.90;76.50;;;;;;5035968;28;20462;-78
2021/03/18 08:21:36;;;;;;;4.25;2.60;;;7.00;76.90;;;;;;5036029;28;20052;-78
2021/03/18 08:24:04;;;;;;;2.92;2.63;;;7.20;77.90;;;;;;5018243;28;20038;-77
2021/03/18 08:26:56;;;;;;;5.90;3.05;;;7.10;77.60;;;;;;5017046;28;20091;-77
2021/03/18 08:29:26;;;;;;;2.92;2.50;;;7.20;77.20;;;;;;5033779;28;20045;-78
2021/03/18 08:32:00;;;;;;;5.07;2.78;;;7.00;76.40;;;;;;5034714;28;20048;-78
2021/03/18 08:34:46;;;;;;;3.47;2.47;;;6.90;73.20;;;;;;5035992;28;20492;-77
2021/03/18 08:37:12;;;;;;;3.60;3.10;;;6.90;73.10;;;;;;5035562;28;20038;-77
2021/03/18 08:39:48;;;;;;;18.13;16.25;;;6.80;72.80;;;;;;5035655;28;20033;-77
2021/03/18 08:42:31;;;;;;;14.65;11.80;;;6.70;73.00;;;;;;5035032;28;20128;-77
2021/03/18 08:45:20;;;;;;;3.63;2.50;;;6.80;70.70;;;;;;5018137;28;20042;-77
2021/03/18 08:47:51;;;;;;;5.25;3.75;;;6.80;70.80;;;;;;5032536;28;20480;-77
2021/03/18 08:50:26;;;;;;;3.90;2.60;;;7.00;70.80;;;;;;5016052;28;20133;-77
2021/03/18 08:53:26;;;;;;;3.53;2.58;;;6.90;70.40;;;;;;5033812;28;20045;-78
2021/03/18 08:55:52;;;;;;;2.42;2.22;;;6.90;71.50;;;;;;5032444;28;20037;-78
2021/03/18 08:58:17;;;;;;;24.08;17.00;;;7.20;68.90;;;;;;5035170;28;20048;-78
2021/03/18 09:00:45;;;;;;;3.63;2.85;;;7.30;68.00;;;;;;5035249;28;20051;-77
2021/03/18 09:03:19;;;;;;;6.60;3.13;;;7.40;69.50;;;;;;5034890;28;20045;-77
2021/03/18 09:05:58;;;;;;;2.40;2.17;;;7.60;68.30;;;;;;5035028;28;20037;-78
2021/03/18 09:08:30;;;;;;;3.75;2.30;;;7.20;65.90;;;;;;5035303;28;20495;-77
2021/03/18 09:10:56;;;;;;;2.20;2.00;;;7.20;67.00;;;;;;5035216;28;20543;-77
2021/03/18 09:13:24;;;;;;;3.95;2.95;;;7.30;65.80;;;;;;5034880;28;20049;-78
2021/03/18 09:15:53;;;;;;;3.63;3.20;;;7.30;66.20;;;;;;5035609;28;20033;-78
2021/03/18 09:18:20;;;;;;;3.67;2.60;;;7.20;65.50;;;;;;5017550;28;20076;-77
2021/03/18 09:21:02;;;;;;;3.17;2.60;;;7.10;65.50;;;;;;5036035;28;20480;-77
2021/03/18 09:23:42;;;;;;;4.18;2.50;;;7.20;63.20;;;;;;5035074;28;20232;-77
2021/03/18 09:26:10;;;;;;;2.50;2.28;;;7.20;62.80;;;;;;5035328;28;20057;-78
2021/03/18 09:28:42;;;;;;;4.90;3.08;;;7.30;64.90;;;;;;5034981;28;20041;-78
2021/03/18 09:31:08;;;;;;;3.67;2.30;;;7.50;63.70;;;;;;5034579;28;20092;-77
2021/03/18 09:33:37;;;;;;;4.57;2.40;;;7.60;61.10;;;;;;5017092;28;20041;-77
2021/03/18 09:36:18;;;;;;;2.85;2.60;;;7.40;60.30;;;;;;5016797;28;20033;-77
2021/03/18 09:39:03;;;;;;;;;;;7.50;60.70;;;;;;5035538;28;20041;-78
2021/03/18 09:41:33;;;;;;;3.08;2.40;;;7.60;59.50;;;;;;5034223;28;19909;-77
2021/03/18 09:44:06;;;;;;;3.50;2.30;;;7.90;57.80;;;;;;5034818;28;20025;-78
2021/03/18 09:46:32;;;;;;;6.13;4.28;;;7.60;58.60;;;;;;5033608;28;20115;-77
2021/03/18 09:48:58;;;;;;;2.65;2.35;;;8.00;59.40;;;;;;5033846;28;20053;-78
2021/03/18 09:51:24;;;;;;;3.25;2.28;;;8.00;58.40;;;;;;5034341;28;20451;-78
2021/03/18 09:54:02;;;;;;;3.53;2.05;;;8.40;58.60;;;;;;5034587;28;20038;-78
2021/03/18 09:56:35;;;;;;;4.20;2.72;;;8.20;54.50;;;;;;5032053;28;20037;-78
2021/03/18 09:59:04;;;;;;;3.90;2.15;;;8.10;56.90;;;;;;5033134;28;20488;-78
2021/03/18 10:01:31;;;;;;;2.97;2.50;;;7.90;56.60;;;;;;5033544;28;20122;-78
2021/03/18 10:04:08;;;;;;;5.75;2.55;;;7.70;56.50;;;;;;5033504;28;20063;-77
2021/03/18 10:06:38;;;;;;;2.63;2.40;;;7.80;57.50;;;;;;5032351;28;20030;-77
2021/03/18 10:09:45;;;;;;;4.43;2.53;;;7.80;57.00;;;;;;5033652;28;20041;-77
2021/03/18 10:12:14;;;;;;;2.55;2.30;;;8.00;57.50;;;;;;5031012;28;20818;-77
2021/03/18 10:14:45;;;;;;;3.45;2.47;;;8.00;55.60;;;;;;5033069;28;20119;-77
2021/03/18 10:17:29;;;;;;;2.78;2.50;;;8.00;57.30;;;;;;5032493;28;20049;-77
2021/03/18 10:19:58;;;;;;;2.97;2.67;;;8.10;57.20;;;;;;5032117;28;20037;-77
2021/03/18 10:22:29;;;;;;;3.25;2.42;;;8.10;56.90;;;;;;5032357;28;20045;-77
2021/03/18 10:25:06;;;;;;;5.80;4.05;;;8.30;57.20;;;;;;5032365;28;20052;-77
2021/03/18 10:27:40;;;;;;;3.85;2.80;;;8.40;56.80;;;;;;5032059;28;20485;-78
2021/03/18 10:30:11;;;;;;;2.65;2.15;;;8.40;57.20;;;;;;5032056;28;20045;-78
2021/03/18 10:32:37;;;;;;;3.60;3.08;;;8.40;56.90;;;;;;5014395;28;20049;-78
2021/03/18 10:35:05;;;;;;;3.38;2.65;;;8.50;56.90;;;;;;5032213;28;20056;-78
2021/03/18 10:37:39;;;;;;;5.63;3.08;;;8.60;56.40;;;;;;5032126;28;20045;-77
2021/03/18 10:40:17;;;;;;;4.38;2.53;;;8.80;57.60;;;;;;5031584;28;20080;-78
2021/03/18 10:42:46;;;;;;;4.38;2.83;;;8.60;56.40;;;;;;5033436;28;20045;-78
2021/03/18 10:45:28;;;;;;;39.05;34.15;;;8.60;56.10;;;;;;5032954;28;20041;-78
2021/03/18 10:47:58;;;;;;;12.32;10.95;;;8.90;56.20;;;;;;5026545;28;20058;-78
2021/03/18 10:50:27;;;;;;;3.08;2.75;;;9.00;56.50;;;;;;5012537;28;20688;-78
2021/03/18 10:53:02;;;;;;;3.83;3.15;;;9.10;56.10;;;;;;5031800;28;20037;-78
2021/03/18 10:55:31;;;;;;;3.53;3.00;;;9.20;54.80;;;;;;5033853;28;20037;-78
2021/03/18 10:58:00;;;;;;;4.88;3.00;;;9.20;54.40;;;;;;5032899;28;20056;-78
2021/03/18 11:00:28;;;;;;;4.10;3.55;;;9.40;56.60;;;;;;5032882;28;20033;-78
2021/03/18 11:03:10;;;;;;;3.38;2.83;;;9.10;54.20;;;;;;5033408;28;20037;-78
2021/03/18 11:05:42;;;;;;;3.35;2.40;;;9.20;55.50;;;;;;5034037;28;20029;-77
2021/03/18 11:08:09;;;;;;;3.60;2.95;;;9.40;53.40;;;;;;5032438;28;20040;-78
2021/03/18 11:10:44;;;;;;;2.92;2.65;;;9.60;52.90;;;;;;5031779;28;20033;-77
2021/03/18 11:13:13;;;;;;;4.05;2.88;;;9.50;52.90;;;;;;5032341;28;20610;-78
2021/03/18 11:16:00;;;;;;;3.67;2.63;;;9.70;53.50;;;;;;5036946;28;20524;-78
2021/03/18 11:18:45;;;;;;;3.22;2.63;;;9.40;53.00;;;;;;5036027;28;20037;-77
2021/03/18 11:21:23;;;;;;;7.18;6.00;;;9.40;53.50;;;;;;5033576;28;20045;-78
2021/03/18 11:23:54;;;;;;;4.53;3.30;;;9.50;54.30;;;;;;5036693;28;20179;-78
2021/03/18 11:26:25;;;;;;;5.80;3.65;;;9.60;55.70;;;;;;5016480;28;20041;-78
2021/03/18 11:28:59;;;;;;;6.15;5.55;;;9.60;55.20;;;;;;5037578;28;20148;-78
2021/03/18 11:31:27;;;;;;;3.28;2.97;;;9.50;55.90;;;;;;5034235;28;20083;-78
2021/03/18 11:33:54;;;;;;;50.13;45.08;;;9.40;55.40;;;;;;5036821;28;20046;-78
2021/03/18 11:36:20;;;;;;;14.32;10.25;;;9.40;55.10;;;;;;5036054;28;20527;-78
2021/03/18 11:38:47;;;;;;;5.30;4.05;;;9.30;54.20;;;;;;5036987;28;20207;-78
2021/03/18 11:41:13;;;;;;;6.90;5.15;;;9.40;53.60;;;;;;5037596;28;20124;-77
2021/03/18 11:43:40;;;;;;;4.90;3.30;;;9.30;53.40;;;;;;5035431;28;20041;-76
2021/03/18 11:46:06;;;;;;;3.42;3.05;;;9.70;53.00;;;;;;5036821;28;20030;-75
2021/03/18 11:48:33;;;;;;;5.97;5.22;;;9.80;52.90;;;;;;5037260;28;20045;-76
2021/03/18 11:50:59;;;;;;;7.38;4.93;;;9.60;50.90;;;;;;5037394;28;20045;-77
2021/03/18 11:53:25;;;;;;;5.47;3.78;;;9.70;52.20;;;;;;5037898;28;20120;-75
2021/03/18 11:55:52;;;;;;;10.27;8.63;;;9.30;54.40;;;;;;5037591;28;20069;-76
2021/03/18 11:58:19;;;;;;;25.65;19.30;;;9.60;52.50;;;;;;5037667;28;20100;-76
2021/03/18 12:00:44;;;;;;;9.02;6.90;;;9.80;51.70;;;;;;5037642;28;20040;-76
2021/03/18 12:03:12;;;;;;;8.02;7.22;;;9.50;52.90;;;;;;5037570;28;20484;-76
2021/03/18 12:05:41;;;;;;;5.18;3.42;;;9.40;52.90;;;;;;5037155;28;20120;-76
2021/03/18 12:08:10;;;;;;;4.72;3.42;;;9.60;52.60;;;;;;5038117;28;20099;-76
2021/03/18 12:10:37;;;;;;;3.70;3.13;;;9.90;52.90;;;;;;5037580;28;20120;-76
2021/03/18 12:13:03;;;;;;;5.15;3.35;;;9.50;51.90;;;;;;5036954;28;20492;-76
2021/03/18 12:15:29;;;;;;;4.60;3.38;;;9.90;51.30;;;;;;5037321;28;20082;-76
2021/03/18 12:17:54;;;;;;;15.80;12.55;;;10.00;52.10;;;;;;5037357;28;20037;-76
2021/03/18 12:20:23;;;;;;;4.53;3.20;;;9.90;51.90;;;;;;5019774;28;20095;-76
2021/03/18 12:22:49;;;;;;;4.15;3.47;;;9.90;53.30;;;;;;5036949;28;20037;-76
2021/03/18 12:25:17;;;;;;;4.65;3.50;;;9.40;52.50;;;;;;5035812;28;20037;-76
2021/03/18 12:27:43;;;;;;;4.20;2.92;;;9.50;52.90;;;;;;5036702;28;20041;-76
2021/03/18 12:30:13;;;;;;;3.50;3.20;;;9.80;53.10;;;;;;5037206;28;20060;-76
2021/03/18 12:32:40;;;;;;;6.10;4.25;;;10.00;53.10;;;;;;5037028;28;20149;-76
2021/03/18 12:35:07;;;;;;;4.80;3.50;;;10.00;51.20;;;;;;5036713;28;20071;-76
2021/03/18 12:37:34;;;;;;;5.07;3.22;;;10.20;52.20;;;;;;5036839;28;20139;-76
2021/03/18 12:40:01;;;;;;;4.57;2.67;;;10.30;51.10;;;;;;5019111;28;20045;-76
2021/03/18 12:42:27;;;;;;;5.13;3.90;;;10.10;51.30;;;;;;5036721;28;20044;-76
2021/03/18 12:44:53;;;;;;;4.45;4.05;;;9.80;50.40;;;;;;5036924;28;20037;-76
2021/03/18 12:47:19;;;;;;;5.85;2.97;;;10.00;50.60;;;;;;5036500;28;20077;-76
2021/03/18 12:49:44;;;;;;;3.47;2.55;;;9.90;50.20;;;;;;5036416;28;20091;-76
2021/03/18 12:52:10;;;;;;;5.63;3.15;;;10.00;50.80;;;;;;5036013;28;20132;-76
2021/03/18 12:54:36;;;;;;;5.82;3.80;;;9.80;51.10;;;;;;5036508;28;20041;-76
2021/03/18 12:57:02;;;;;;;4.00;3.50;;;9.90;51.80;;;;;;5036308;28;20047;-75
2021/03/18 12:59:28;;;;;;;4.57;3.30;;;9.90;51.80;;;;;;5036181;28;20132;-76
2021/03/18 13:01:54;;;;;;;6.60;3.40;;;9.90;52.40;;;;;;5036346;28;20464;-76
2021/03/18 13:04:21;;;;;;;4.50;3.75;;;10.10;54.10;;;;;;5035837;28;20041;-76
2021/03/18 13:06:50;;;;;;;4.55;3.22;;;9.50;54.50;;;;;;5036102;28;20041;-76
2021/03/18 13:09:16;;;;;;;3.67;2.47;;;9.20;52.50;;;;;;5036374;28;20045;-76
2021/03/18 13:11:41;;;;;;;3.95;2.40;;;9.30;52.80;;;;;;5035938;28;20037;-76
2021/03/18 13:14:07;;;;;;;3.13;2.60;;;10.00;51.80;;;;;;5035483;28;20045;-76
2021/03/18 13:16:34;;;;;;;3.45;3.10;;;9.70;52.80;;;;;;5035605;28;20129;-76
2021/03/18 13:19:00;;;;;;;3.28;2.67;;;9.50;53.20;;;;;;5036800;28;20038;-76
2021/03/18 13:21:26;;;;;;;4.18;2.75;;;9.10;53.80;;;;;;5035803;28;20037;-76
2021/03/18 13:23:52;;;;;;;3.80;3.20;;;9.10;54.30;;;;;;5035478;28;20045;-76
2021/03/18 13:26:18;;;;;;;4.28;3.13;;;9.20;55.10;;;;;;5035695;28;20037;-76
2021/03/18 13:28:44;;;;;;;4.50;3.25;;;9.30;54.10;;;;;;5035237;28;20033;-76
2021/03/18 13:31:10;;;;;;;3.72;2.78;;;8.90;53.50;;;;;;5035267;28;20417;-76
2021/03/18 13:33:36;;;;;;;4.15;2.65;;;9.10;53.30;;;;;;5035275;28;20041;-76
2021/03/18 13:36:03;;;;;;;3.60;2.90;;;9.30;53.80;;;;;;5034816;28;20037;-75
2021/03/18 13:38:31;;;;;;;2.78;2.50;;;9.10;53.20;;;;;;5036113;28;20045;-76
2021/03/18 13:40:58;;;;;;;3.58;2.50;;;9.10;53.70;;;;;;5035509;28;20049;-76
2021/03/18 13:43:24;;;;;;;5.25;3.10;;;9.20;54.00;;;;;;5034947;28;20047;-76
2021/03/18 13:45:50;;;;;;;3.03;2.72;;;9.00;56.50;;;;;;5035080;28;20555;-76
2021/03/18 13:48:16;;;;;;;2.97;2.67;;;9.10;55.10;;;;;;5017088;28;20073;-76
2021/03/18 13:50:49;;;;;;;2.58;2.15;;;8.90;56.50;;;;;;5035344;28;20072;-76
2021/03/18 13:53:15;;;;;;;5.32;3.40;;;8.80;55.40;;;;;;5035262;28;20535;-76
2021/03/18 13:55:40;;;;;;;3.13;2.80;;;9.10;56.40;;;;;;5035201;28;20037;-76
2021/03/18 13:58:06;;;;;;;3.45;2.50;;;8.80;55.50;;;;;;5035319;28;20064;-76
2021/03/18 14:00:33;;;;;;;3.97;2.88;;;9.00;55.80;;;;;;5035252;28;20055;-76